sensor_id;sensor_type;location;lat;lon;timestamp;pressure;altitude;pressure_sealevel;temperature;humidity
69796;BME280;57073;45.650;9.612;2024-01-10T00:02:49;100224.00;;;5.01;49.91
69796;BME280;57073;45.650;9.612;2024-01-10T00:07:49;100226.28;;;5.12;51.30
69796;BME280;57073;45.650;9.612;2024-01-10T00:12:50;100222.94;;;5.10;51.50
69796;BME280;57073;45.650;9.612;2024-01-10T00:17:50;100224.97;;;5.08;52.22
69796;BME280;57073;45.650;9.612;2024-01-10T00:22:50;100224.66;;;5.03;52.16
69796;BME280;57073;45.650;9.612;2024-01-10T00:27:51;100223.97;;;5.09;52.29
69796;BME280;57073;45.650;9.612;2024-01-10T00:32:51;100227.00;;;5.06;51.02
69796;BME280;57073;45.650;9.612;2024-01-10T00:37:52;100226.13;;;4.82;50.88
69796;BME280;57073;45.650;9.612;2024-01-10T00:42:52;100232.09;;;4.93;51.82
69796;BME280;57073;45.650;9.612;2024-01-10T00:47:52;100233.16;;;4.83;51.00
69796;BME280;57073;45.650;9.612;2024-01-10T00:52:53;100230.78;;;4.89;52.10
69796;BME280;57073;45.650;9.612;2024-01-10T00:57:54;100241.22;;;4.75;51.03
69796;BME280;57073;45.650;9.612;2024-01-10T01:02:54;100227.34;;;4.80;51.33
69796;BME280;57073;45.650;9.612;2024-01-10T01:07:54;100245.94;;;4.65;49.39
69796;BME280;57073;45.650;9.612;2024-01-10T01:12:55;100240.25;;;4.68;47.65
69796;BME280;57073;45.650;9.612;2024-01-10T01:17:56;100247.47;;;4.59;47.64
69796;BME280;57073;45.650;9.612;2024-01-10T01:22:56;100251.34;;;4.48;46.12
69796;BME280;57073;45.650;9.612;2024-01-10T01:27:56;100262.97;;;4.64;47.28
69796;BME280;57073;45.650;9.612;2024-01-10T01:32:57;100257.97;;;4.61;46.37
69796;BME280;57073;45.650;9.612;2024-01-10T01:37:59;100259.25;;;4.42;45.78
69796;BME280;57073;45.650;9.612;2024-01-10T01:42:59;100254.22;;;4.47;45.78
69796;BME280;57073;45.650;9.612;2024-01-10T01:48:00;100260.72;;;4.44;45.54
69796;BME280;57073;45.650;9.612;2024-01-10T01:53:00;100253.25;;;4.40;45.30
69796;BME280;57073;45.650;9.612;2024-01-10T01:58:01;100260.94;;;4.35;45.89
69796;BME280;57073;45.650;9.612;2024-01-10T02:03:02;100256.75;;;4.40;45.96
69796;BME280;57073;45.650;9.612;2024-01-10T02:08:02;100263.72;;;4.49;45.87
69796;BME280;57073;45.650;9.612;2024-01-10T02:13:03;100252.22;;;4.41;45.31
69796;BME280;57073;45.650;9.612;2024-01-10T02:18:04;100255.69;;;4.49;44.72
69796;BME280;57073;45.650;9.612;2024-01-10T02:23:05;100265.06;;;4.45;45.28
69796;BME280;57073;45.650;9.612;2024-01-10T02:28:06;100254.63;;;4.27;44.08
69796;BME280;57073;45.650;9.612;2024-01-10T02:33:07;100255.59;;;4.26;45.24
69796;BME280;57073;45.650;9.612;2024-01-10T02:38:07;100258.94;;;4.28;44.28
69796;BME280;57073;45.650;9.612;2024-01-10T02:43:08;100245.78;;;4.27;44.04
69796;BME280;57073;45.650;9.612;2024-01-10T02:48:09;100242.91;;;4.37;44.11
69796;BME280;57073;45.650;9.612;2024-01-10T02:53:10;100238.38;;;4.37;44.15
69796;BME280;57073;45.650;9.612;2024-01-10T02:58:10;100232.28;;;4.20;44.04
69796;BME280;57073;45.650;9.612;2024-01-10T03:03:12;100238.44;;;4.29;44.39
69796;BME280;57073;45.650;9.612;2024-01-10T03:08:12;100239.13;;;4.15;43.35
69796;BME280;57073;45.650;9.612;2024-01-10T03:13:13;100235.81;;;4.13;43.03
69796;BME280;57073;45.650;9.612;2024-01-10T03:18:14;100233.41;;;4.26;44.34
69796;BME280;57073;45.650;9.612;2024-01-10T03:23:15;100231.75;;;4.25;42.71
69796;BME280;57073;45.650;9.612;2024-01-10T03:28:16;100229.44;;;4.22;44.42
69796;BME280;57073;45.650;9.612;2024-01-10T03:33:17;100225.47;;;4.09;44.35
69796;BME280;57073;45.650;9.612;2024-01-10T03:38:18;100220.09;;;4.18;44.96
69796;BME280;57073;45.650;9.612;2024-01-10T03:43:18;100222.41;;;4.29;44.58
69796;BME280;57073;45.650;9.612;2024-01-10T03:48:18;100226.72;;;4.30;44.77
69796;BME280;57073;45.650;9.612;2024-01-10T03:53:19;100231.09;;;4.23;44.62
69796;BME280;57073;45.650;9.612;2024-01-10T03:58:20;100222.75;;;4.18;44.81
69796;BME280;57073;45.650;9.612;2024-01-10T04:03:20;100230.75;;;4.18;44.68
69796;BME280;57073;45.650;9.612;2024-01-10T04:08:20;100228.25;;;4.24;44.46
69796;BME280;57073;45.650;9.612;2024-01-10T04:13:21;100229.63;;;4.12;44.83
69796;BME280;57073;45.650;9.612;2024-01-10T04:18:21;100220.00;;;3.95;44.74
69796;BME280;57073;45.650;9.612;2024-01-10T04:23:21;100228.88;;;3.70;45.24
69796;BME280;57073;45.650;9.612;2024-01-10T04:28:23;100227.72;;;3.73;45.40
69796;BME280;57073;45.650;9.612;2024-01-10T04:33:23;100229.50;;;3.97;44.76
69796;BME280;57073;45.650;9.612;2024-01-10T04:38:24;100227.47;;;4.07;45.33
69796;BME280;57073;45.650;9.612;2024-01-10T04:43:26;100232.13;;;4.14;44.82
69796;BME280;57073;45.650;9.612;2024-01-10T04:48:27;100232.72;;;4.32;44.62
69796;BME280;57073;45.650;9.612;2024-01-10T04:53:27;100235.53;;;4.39;44.63
69796;BME280;57073;45.650;9.612;2024-01-10T04:58:27;100231.88;;;4.40;45.09
69796;BME280;57073;45.650;9.612;2024-01-10T05:03:29;100236.28;;;4.56;46.00
69796;BME280;57073;45.650;9.612;2024-01-10T05:08:30;100232.16;;;4.53;44.99
69796;BME280;57073;45.650;9.612;2024-01-10T05:13:30;100239.66;;;4.58;45.13
69796;BME280;57073;45.650;9.612;2024-01-10T05:18:31;100239.09;;;4.62;44.51
69796;BME280;57073;45.650;9.612;2024-01-10T05:23:31;100248.16;;;4.53;44.66
69796;BME280;57073;45.650;9.612;2024-01-10T05:28:33;100254.00;;;4.57;44.97
69796;BME280;57073;45.650;9.612;2024-01-10T05:33:33;100262.03;;;4.48;45.01
69796;BME280;57073;45.650;9.612;2024-01-10T05:38:33;100257.72;;;4.39;46.00
69796;BME280;57073;45.650;9.612;2024-01-10T05:43:34;100255.59;;;4.35;45.98
69796;BME280;57073;45.650;9.612;2024-01-10T05:48:34;100262.09;;;4.32;44.96
69796;BME280;57073;45.650;9.612;2024-01-10T05:53:35;100266.28;;;4.35;45.49
69796;BME280;57073;45.650;9.612;2024-01-10T05:58:36;100273.75;;;4.39;45.28
69796;BME280;57073;45.650;9.612;2024-01-10T06:03:36;100275.09;;;4.43;44.50
69796;BME280;57073;45.650;9.612;2024-01-10T06:08:37;100280.28;;;4.37;45.03
69796;BME280;57073;45.650;9.612;2024-01-10T06:13:37;100284.09;;;4.34;45.11
69796;BME280;57073;45.650;9.612;2024-01-10T06:18:38;100280.13;;;4.30;45.20
69796;BME280;57073;45.650;9.612;2024-01-10T06:23:38;100280.13;;;4.30;45.77
69796;BME280;57073;45.650;9.612;2024-01-10T06:28:38;100281.97;;;4.21;44.60
69796;BME280;57073;45.650;9.612;2024-01-10T06:33:39;100281.16;;;4.29;45.40
69796;BME280;57073;45.650;9.612;2024-01-10T06:38:39;100287.00;;;4.24;44.88
69796;BME280;57073;45.650;9.612;2024-01-10T06:43:40;100299.84;;;4.29;45.94
69796;BME280;57073;45.650;9.612;2024-01-10T06:48:40;100299.19;;;4.27;43.99
69796;BME280;57073;45.650;9.612;2024-01-10T06:53:41;100294.16;;;4.24;44.85
69796;BME280;57073;45.650;9.612;2024-01-10T06:58:42;100304.03;;;4.23;45.05
69796;BME280;57073;45.650;9.612;2024-01-10T07:03:42;100304.88;;;4.07;45.61
69796;BME280;57073;45.650;9.612;2024-01-10T07:08:45;100307.34;;;4.17;44.13
69796;BME280;57073;45.650;9.612;2024-01-10T07:13:46;100314.88;;;4.22;45.23
69796;BME280;57073;45.650;9.612;2024-01-10T07:18:46;100312.91;;;4.07;45.59
69796;BME280;57073;45.650;9.612;2024-01-10T07:23:47;100323.41;;;3.84;44.90
69796;BME280;57073;45.650;9.612;2024-01-10T07:28:49;100332.59;;;3.90;44.68
69796;BME280;57073;45.650;9.612;2024-01-10T07:33:50;100334.91;;;4.01;45.14
69796;BME280;57073;45.650;9.612;2024-01-10T07:38:50;100335.56;;;3.87;45.30
69796;BME280;57073;45.650;9.612;2024-01-10T07:43:50;100345.25;;;3.88;45.50
69796;BME280;57073;45.650;9.612;2024-01-10T07:48:51;100350.91;;;3.85;44.08
69796;BME280;57073;45.650;9.612;2024-01-10T07:53:51;100338.25;;;3.87;44.88
69796;BME280;57073;45.650;9.612;2024-01-10T07:58:51;100348.28;;;3.93;44.63
69796;BME280;57073;45.650;9.612;2024-01-10T08:03:52;100359.44;;;3.97;44.67
69796;BME280;57073;45.650;9.612;2024-01-10T08:08:52;100357.63;;;3.89;43.51
69796;BME280;57073;45.650;9.612;2024-01-10T08:13:52;100355.09;;;3.87;43.64
69796;BME280;57073;45.650;9.612;2024-01-10T08:18:53;100365.28;;;3.84;44.04
69796;BME280;57073;45.650;9.612;2024-01-10T08:23:53;100367.94;;;3.84;43.99
69796;BME280;57073;45.650;9.612;2024-01-10T08:28:53;100374.28;;;3.75;42.15
69796;BME280;57073;45.650;9.612;2024-01-10T08:33:54;100380.63;;;3.90;43.36
69796;BME280;57073;45.650;9.612;2024-01-10T08:38:56;100385.63;;;3.93;44.41
69796;BME280;57073;45.650;9.612;2024-01-10T08:43:57;100392.59;;;3.61;43.95
69796;BME280;57073;45.650;9.612;2024-01-10T08:48:57;100387.13;;;3.87;43.96
69796;BME280;57073;45.650;9.612;2024-01-10T08:53:57;100396.91;;;3.54;43.64
69796;BME280;57073;45.650;9.612;2024-01-10T08:58:58;100399.56;;;3.54;43.95
69796;BME280;57073;45.650;9.612;2024-01-10T09:03:58;100407.72;;;3.52;43.91
69796;BME280;57073;45.650;9.612;2024-01-10T09:08:59;100407.25;;;3.57;44.37
69796;BME280;57073;45.650;9.612;2024-01-10T09:13:59;100414.94;;;3.68;45.24
69796;BME280;57073;45.650;9.612;2024-01-10T09:19:00;100409.41;;;3.53;45.93
69796;BME280;57073;45.650;9.612;2024-01-10T09:24:00;100416.91;;;3.50;46.35
69796;BME280;57073;45.650;9.612;2024-01-10T09:29:00;100428.13;;;3.70;46.28
69796;BME280;57073;45.650;9.612;2024-01-10T09:34:01;100430.16;;;3.25;46.64
69796;BME280;57073;45.650;9.612;2024-01-10T09:39:01;100433.41;;;3.53;44.73
69796;BME280;57073;45.650;9.612;2024-01-10T09:44:05;100435.63;;;3.58;44.27
69796;BME280;57073;45.650;9.612;2024-01-10T09:49:06;100440.13;;;3.74;46.02
69796;BME280;57073;45.650;9.612;2024-01-10T09:54:06;100447.66;;;3.79;45.47
69796;BME280;57073;45.650;9.612;2024-01-10T09:59:07;100438.66;;;4.04;45.56
69796;BME280;57073;45.650;9.612;2024-01-10T10:04:12;100445.00;;;4.03;45.24
69796;BME280;57073;45.650;9.612;2024-01-10T10:09:13;100450.34;;;3.95;44.32
69796;BME280;57073;45.650;9.612;2024-01-10T10:14:16;100442.16;;;3.88;44.91
69796;BME280;57073;45.650;9.612;2024-01-10T10:19:25;100434.00;;;4.23;45.24
69796;BME280;57073;45.650;9.612;2024-01-10T10:24:26;100440.19;;;4.40;44.82
69796;BME280;57073;45.650;9.612;2024-01-10T10:29:26;100435.66;;;4.32;44.63
69796;BME280;57073;45.650;9.612;2024-01-10T10:34:31;100434.34;;;4.36;44.72
69796;BME280;57073;45.650;9.612;2024-01-10T10:39:32;100436.34;;;4.51;45.23
69796;BME280;57073;45.650;9.612;2024-01-10T10:44:35;100431.97;;;4.41;43.76
69796;BME280;57073;45.650;9.612;2024-01-10T10:49:43;100434.63;;;4.66;44.77
69796;BME280;57073;45.650;9.612;2024-01-10T10:54:46;100435.50;;;4.34;42.86
69796;BME280;57073;45.650;9.612;2024-01-10T10:59:49;100433.81;;;4.49;44.37
69796;BME280;57073;45.650;9.612;2024-01-10T11:04:54;100436.28;;;4.75;43.76
69796;BME280;57073;45.650;9.612;2024-01-10T11:09:54;100424.88;;;4.90;44.14
69796;BME280;57073;45.650;9.612;2024-01-10T11:15:46;100422.84;;;5.00;43.50
69796;BME280;57073;45.650;9.612;2024-01-10T11:26:19;100417.00;;;4.96;44.08
69796;BME280;57073;45.650;9.612;2024-01-10T11:31:30;100409.91;;;5.12;44.74
69796;BME280;57073;45.650;9.612;2024-01-10T11:36:31;100400.44;;;5.01;43.27
69796;BME280;57073;45.650;9.612;2024-01-10T11:41:33;100400.09;;;5.04;44.10
69796;BME280;57073;45.650;9.612;2024-01-10T11:46:38;100395.06;;;5.09;44.47
69796;BME280;57073;45.650;9.612;2024-01-10T11:51:38;100386.16;;;5.17;44.22
69796;BME280;57073;45.650;9.612;2024-01-10T11:56:40;100385.28;;;5.24;44.59
69796;BME280;57073;45.650;9.612;2024-01-10T12:01:42;100381.28;;;5.29;44.96
69796;BME280;57073;45.650;9.612;2024-01-10T12:06:42;100372.53;;;5.35;43.69
69796;BME280;57073;45.650;9.612;2024-01-10T12:11:43;100375.34;;;5.41;44.34
69796;BME280;57073;45.650;9.612;2024-01-10T12:16:43;100370.16;;;5.48;44.67
69796;BME280;57073;45.650;9.612;2024-01-10T12:21:43;100367.78;;;5.53;43.99
69796;BME280;57073;45.650;9.612;2024-01-10T12:26:45;100349.47;;;5.42;43.40
69796;BME280;57073;45.650;9.612;2024-01-10T12:31:46;100348.03;;;5.23;43.03
69796;BME280;57073;45.650;9.612;2024-01-10T12:36:47;100343.88;;;5.20;43.41
69796;BME280;57073;45.650;9.612;2024-01-10T12:41:48;100338.50;;;5.29;43.59
69796;BME280;57073;45.650;9.612;2024-01-10T12:46:50;100334.13;;;5.28;43.74
69796;BME280;57073;45.650;9.612;2024-01-10T12:51:52;100325.69;;;5.39;43.65
69796;BME280;57073;45.650;9.612;2024-01-10T12:56:52;100317.19;;;5.12;42.71
69796;BME280;57073;45.650;9.612;2024-01-10T13:01:52;100321.50;;;5.21;43.31
69796;BME280;57073;45.650;9.612;2024-01-10T13:06:53;100315.25;;;5.29;43.60
69796;BME280;57073;45.650;9.612;2024-01-10T13:11:53;100310.09;;;5.19;42.45
69796;BME280;57073;45.650;9.612;2024-01-10T13:16:54;100307.81;;;5.16;43.18
69796;BME280;57073;45.650;9.612;2024-01-10T13:21:54;100308.78;;;5.23;43.48
69796;BME280;57073;45.650;9.612;2024-01-10T13:26:55;100304.91;;;4.95;43.85
69796;BME280;57073;45.650;9.612;2024-01-10T13:31:55;100303.41;;;4.92;43.40
69796;BME280;57073;45.650;9.612;2024-01-10T13:36:56;100300.53;;;5.02;43.79
69796;BME280;57073;45.650;9.612;2024-01-10T13:41:56;100302.56;;;5.00;44.23
69796;BME280;57073;45.650;9.612;2024-01-10T13:46:56;100293.69;;;4.99;45.33
69796;BME280;57073;45.650;9.612;2024-01-10T13:51:57;100293.66;;;5.07;45.32
69796;BME280;57073;45.650;9.612;2024-01-10T13:56:57;100290.34;;;4.97;46.29
69796;BME280;57073;45.650;9.612;2024-01-10T14:01:58;100286.63;;;5.06;45.57
69796;BME280;57073;45.650;9.612;2024-01-10T14:06:59;100289.78;;;5.10;46.16
69796;BME280;57073;45.650;9.612;2024-01-10T14:12:00;100289.50;;;5.05;45.52
69796;BME280;57073;45.650;9.612;2024-01-10T14:17:00;100285.31;;;5.02;46.05
69796;BME280;57073;45.650;9.612;2024-01-10T14:22:00;100284.50;;;5.02;46.55
69796;BME280;57073;45.650;9.612;2024-01-10T14:27:01;100279.50;;;4.99;45.81
69796;BME280;57073;45.650;9.612;2024-01-10T14:32:02;100280.81;;;5.03;45.23
69796;BME280;57073;45.650;9.612;2024-01-10T14:37:03;100270.69;;;4.90;45.12
69796;BME280;57073;45.650;9.612;2024-01-10T14:42:06;100281.84;;;4.94;45.27
69796;BME280;57073;45.650;9.612;2024-01-10T14:47:08;100284.91;;;4.91;45.81
69796;BME280;57073;45.650;9.612;2024-01-10T14:52:09;100282.88;;;4.93;45.03
69796;BME280;57073;45.650;9.612;2024-01-10T14:57:09;100287.59;;;4.82;45.62
69796;BME280;57073;45.650;9.612;2024-01-10T15:02:10;100288.16;;;4.78;45.58
69796;BME280;57073;45.650;9.612;2024-01-10T15:07:10;100281.63;;;4.72;45.48
69796;BME280;57073;45.650;9.612;2024-01-10T15:12:11;100277.31;;;4.71;45.81
69796;BME280;57073;45.650;9.612;2024-01-10T15:17:12;100285.00;;;4.74;46.26
69796;BME280;57073;45.650;9.612;2024-01-10T15:22:13;100282.00;;;4.69;46.02
69796;BME280;57073;45.650;9.612;2024-01-10T15:27:13;100274.59;;;4.79;45.21
69796;BME280;57073;45.650;9.612;2024-01-10T15:32:14;100280.50;;;4.66;46.17
69796;BME280;57073;45.650;9.612;2024-01-10T15:37:14;100285.00;;;4.74;46.28
69796;BME280;57073;45.650;9.612;2024-01-10T15:42:14;100283.31;;;4.65;46.79
69796;BME280;57073;45.650;9.612;2024-01-10T15:47:15;100276.34;;;4.64;46.64
69796;BME280;57073;45.650;9.612;2024-01-10T15:52:16;100288.00;;;4.71;46.48
69796;BME280;57073;45.650;9.612;2024-01-10T15:57:16;100289.03;;;4.62;46.22
69796;BME280;57073;45.650;9.612;2024-01-10T16:02:17;100290.19;;;4.59;47.25
69796;BME280;57073;45.650;9.612;2024-01-10T16:07:17;100294.88;;;4.65;46.59
69796;BME280;57073;45.650;9.612;2024-01-10T16:12:19;100293.97;;;4.42;46.33
69796;BME280;57073;45.650;9.612;2024-01-10T16:17:19;100303.13;;;4.47;48.74
69796;BME280;57073;45.650;9.612;2024-01-10T16:22:20;100293.97;;;4.34;47.26
69796;BME280;57073;45.650;9.612;2024-01-10T16:27:20;100301.66;;;4.37;47.54
69796;BME280;57073;45.650;9.612;2024-01-10T16:32:21;100300.13;;;4.42;47.48
69796;BME280;57073;45.650;9.612;2024-01-10T16:37:21;100301.97;;;4.34;46.57
69796;BME280;57073;45.650;9.612;2024-01-10T16:42:23;100306.50;;;4.33;46.95
69796;BME280;57073;45.650;9.612;2024-01-10T16:47:23;100303.03;;;4.16;46.63
69796;BME280;57073;45.650;9.612;2024-01-10T16:52:24;100308.69;;;4.21;46.87
69796;BME280;57073;45.650;9.612;2024-01-10T16:57:24;100315.00;;;4.28;45.70
69796;BME280;57073;45.650;9.612;2024-01-10T17:02:24;100316.53;;;4.23;46.71
69796;BME280;57073;45.650;9.612;2024-01-10T17:07:25;100323.22;;;4.27;47.85
69796;BME280;57073;45.650;9.612;2024-01-10T17:12:26;100319.03;;;4.33;46.68
69796;BME280;57073;45.650;9.612;2024-01-10T17:17:27;100323.00;;;4.37;47.19
69796;BME280;57073;45.650;9.612;2024-01-10T17:22:27;100319.34;;;4.29;48.16
69796;BME280;57073;45.650;9.612;2024-01-10T17:27:28;100319.47;;;4.44;48.31
69796;BME280;57073;45.650;9.612;2024-01-10T17:32:28;100318.88;;;4.01;47.02
69796;BME280;57073;45.650;9.612;2024-01-10T17:37:29;100318.56;;;4.13;46.73
69796;BME280;57073;45.650;9.612;2024-01-10T17:42:29;100321.16;;;4.37;47.16
69796;BME280;57073;45.650;9.612;2024-01-10T17:47:30;100317.66;;;4.37;47.84
69796;BME280;57073;45.650;9.612;2024-01-10T17:52:31;100331.63;;;4.55;47.13
69796;BME280;57073;45.650;9.612;2024-01-10T17:57:31;100328.47;;;4.52;47.76
69796;BME280;57073;45.650;9.612;2024-01-10T18:02:32;100327.97;;;4.48;47.24
69796;BME280;57073;45.650;9.612;2024-01-10T18:07:33;100330.31;;;4.51;46.38
69796;BME280;57073;45.650;9.612;2024-01-10T18:12:33;100337.50;;;4.51;47.80
69796;BME280;57073;45.650;9.612;2024-01-10T18:17:33;100331.13;;;4.52;47.83
69796;BME280;57073;45.650;9.612;2024-01-10T18:22:34;100331.78;;;4.54;47.01
69796;BME280;57073;45.650;9.612;2024-01-10T18:27:34;100336.97;;;4.55;46.47
69796;BME280;57073;45.650;9.612;2024-01-10T18:32:35;100324.16;;;4.42;45.72
69796;BME280;57073;45.650;9.612;2024-01-10T18:37:36;100326.69;;;4.27;46.14
69796;BME280;57073;45.650;9.612;2024-01-10T18:42:36;100326.19;;;4.32;46.49
69796;BME280;57073;45.650;9.612;2024-01-10T18:47:36;100327.38;;;4.29;45.59
69796;BME280;57073;45.650;9.612;2024-01-10T18:52:38;100327.56;;;4.20;46.58
69796;BME280;57073;45.650;9.612;2024-01-10T18:57:38;100328.22;;;4.22;46.44
69796;BME280;57073;45.650;9.612;2024-01-10T19:02:39;100333.41;;;4.23;46.14
69796;BME280;57073;45.650;9.612;2024-01-10T19:07:39;100325.38;;;4.15;46.63
69796;BME280;57073;45.650;9.612;2024-01-10T19:12:41;100322.84;;;4.30;46.63
69796;BME280;57073;45.650;9.612;2024-01-10T19:17:41;100318.53;;;4.21;47.75
69796;BME280;57073;45.650;9.612;2024-01-10T19:22:42;100325.88;;;4.19;46.53
69796;BME280;57073;45.650;9.612;2024-01-10T19:27:47;100313.53;;;4.18;47.54
69796;BME280;57073;45.650;9.612;2024-01-10T19:32:48;100312.66;;;4.34;46.05
69796;BME280;57073;45.650;9.612;2024-01-10T19:37:50;100327.00;;;4.41;47.55
69796;BME280;57073;45.650;9.612;2024-01-10T19:42:50;100320.84;;;4.40;45.66
69796;BME280;57073;45.650;9.612;2024-01-10T19:47:51;100323.94;;;4.52;46.61
69796;BME280;57073;45.650;9.612;2024-01-10T19:52:51;100322.63;;;4.56;46.74
69796;BME280;57073;45.650;9.612;2024-01-10T19:57:52;100329.78;;;4.56;47.29
69796;BME280;57073;45.650;9.612;2024-01-10T20:02:53;100333.97;;;4.50;46.85
69796;BME280;57073;45.650;9.612;2024-01-10T20:07:53;100335.16;;;4.47;47.36
69796;BME280;57073;45.650;9.612;2024-01-10T20:12:53;100324.66;;;4.46;46.73
69796;BME280;57073;45.650;9.612;2024-01-10T20:17:54;100332.50;;;4.39;46.49
69796;BME280;57073;45.650;9.612;2024-01-10T20:22:55;100338.50;;;4.41;47.15
69796;BME280;57073;45.650;9.612;2024-01-10T20:27:55;100338.22;;;4.36;47.35
69796;BME280;57073;45.650;9.612;2024-01-10T20:32:56;100340.19;;;4.34;46.80
69796;BME280;57073;45.650;9.612;2024-01-10T20:37:57;100332.50;;;4.39;46.85
69796;BME280;57073;45.650;9.612;2024-01-10T20:42:58;100329.19;;;4.37;46.61
69796;BME280;57073;45.650;9.612;2024-01-10T20:47:58;100334.50;;;4.37;46.12
69796;BME280;57073;45.650;9.612;2024-01-10T20:52:59;100317.88;;;4.27;46.84
69796;BME280;57073;45.650;9.612;2024-01-10T20:57:59;100324.03;;;4.27;47.44
69796;BME280;57073;45.650;9.612;2024-01-10T21:02:59;100327.19;;;4.23;48.03
69796;BME280;57073;45.650;9.612;2024-01-10T21:08:00;100331.06;;;4.12;48.30
69796;BME280;57073;45.650;9.612;2024-01-10T21:13:00;100319.72;;;4.10;48.24
69796;BME280;57073;45.650;9.612;2024-01-10T21:18:00;100317.53;;;4.14;48.17
69796;BME280;57073;45.650;9.612;2024-01-10T21:23:01;100313.91;;;3.98;48.25
69796;BME280;57073;45.650;9.612;2024-01-10T21:28:02;100317.22;;;4.08;47.30
69796;BME280;57073;45.650;9.612;2024-01-10T21:33:06;100306.56;;;4.00;48.07
69796;BME280;57073;45.650;9.612;2024-01-10T21:38:06;100312.59;;;3.86;48.30
69796;BME280;57073;45.650;9.612;2024-01-10T21:43:07;100310.91;;;3.60;50.36
69796;BME280;57073;45.650;9.612;2024-01-10T21:48:07;100310.06;;;3.60;50.77
69796;BME280;57073;45.650;9.612;2024-01-10T21:53:08;100314.22;;;3.54;52.19
69796;BME280;57073;45.650;9.612;2024-01-10T21:58:08;100312.44;;;3.55;52.07
69796;BME280;57073;45.650;9.612;2024-01-10T22:03:09;100311.91;;;3.35;51.10
69796;BME280;57073;45.650;9.612;2024-01-10T22:08:09;100309.38;;;3.25;51.94
69796;BME280;57073;45.650;9.612;2024-01-10T22:13:10;100298.34;;;3.20;51.66
69796;BME280;57073;45.650;9.612;2024-01-10T22:18:10;100304.31;;;2.97;52.65
69796;BME280;57073;45.650;9.612;2024-01-10T22:23:11;100300.34;;;3.09;52.77
69796;BME280;57073;45.650;9.612;2024-01-10T22:28:12;100295.19;;;3.08;52.00
69796;BME280;57073;45.650;9.612;2024-01-10T22:33:13;100297.16;;;2.98;51.95
69796;BME280;57073;45.650;9.612;2024-01-10T22:38:13;100293.28;;;2.84;53.34
69796;BME280;57073;45.650;9.612;2024-01-10T22:43:13;100290.56;;;2.75;52.51
69796;BME280;57073;45.650;9.612;2024-01-10T22:48:14;100292.75;;;2.88;53.57
69796;BME280;57073;45.650;9.612;2024-01-10T22:53:14;100294.09;;;2.84;52.85
69796;BME280;57073;45.650;9.612;2024-01-10T22:58:14;100288.41;;;2.79;53.81
69796;BME280;57073;45.650;9.612;2024-01-10T23:03:15;100288.09;;;2.82;53.88
69796;BME280;57073;45.650;9.612;2024-01-10T23:08:15;100275.41;;;2.76;53.59
69796;BME280;57073;45.650;9.612;2024-01-10T23:13:16;100275.75;;;2.73;53.84
69796;BME280;57073;45.650;9.612;2024-01-10T23:18:19;100274.03;;;2.64;54.28
69796;BME280;57073;45.650;9.612;2024-01-10T23:23:19;100274.59;;;2.75;54.05
69796;BME280;57073;45.650;9.612;2024-01-10T23:28:20;100274.53;;;2.59;54.58
69796;BME280;57073;45.650;9.612;2024-01-10T23:33:20;100270.47;;;2.47;54.59
69796;BME280;57073;45.650;9.612;2024-01-10T23:38:20;100272.47;;;2.45;54.79
69796;BME280;57073;45.650;9.612;2024-01-10T23:43:21;100267.28;;;2.35;55.00
69796;BME280;57073;45.650;9.612;2024-01-10T23:48:22;100269.56;;;2.64;53.72
69796;BME280;57073;45.650;9.612;2024-01-10T23:53:25;100261.97;;;2.35;55.51
69796;BME280;57073;45.650;9.612;2024-01-10T23:58:26;100264.63;;;2.35;54.54
